sensor_id;sensor_type;location;lat;lon;timestamp;temperature;humidity
12922;DHT22;6528;48.086;16.282;2023-04-03T00:00:40;21.60;97.50
12922;DHT22;6528;48.086;16.282;2023-04-03T00:03:07;21.60;97.90
12922;DHT22;6528;48.086;16.282;2023-04-03T00:05:34;21.60;97.20
12922;DHT22;6528;48.086;16.282;2023-04-03T00:08:02;21.60;97.80
12922;DHT22;6528;48.086;16.282;2023-04-03T00:10:28;21.60;97.50
12922;DHT22;6528;48.086;16.282;2023-04-03T00:12:55;21.60;97.30
12922;DHT22;6528;48.086;16.282;2023-04-03T00:15:22;21.60;97.10
12922;DHT22;6528;48.086;16.282;2023-04-03T00:17:49;21.60;97.40
12922;DHT22;6528;48.086;16.282;2023-04-03T00:20:16;21.60;97.40
12922;DHT22;6528;48.086;16.282;2023-04-03T00:22:43;21.60;97.20
12922;DHT22;6528;48.086;16.282;2023-04-03T00:25:10;21.60;97.20
12922;DHT22;6528;48.086;16.282;2023-04-03T00:27:40;21.60;97.30
12922;DHT22;6528;48.086;16.282;2023-04-03T00:30:08;21.60;96.90
12922;DHT22;6528;48.086;16.282;2023-04-03T00:32:37;21.50;97.10
12922;DHT22;6528;48.086;16.282;2023-04-03T00:35:04;21.60;96.80
12922;DHT22;6528;48.086;16.282;2023-04-03T00:37:31;21.60;97.00
12922;DHT22;6528;48.086;16.282;2023-04-03T00:39:58;21.60;97.00
12922;DHT22;6528;48.086;16.282;2023-04-03T00:42:26;21.60;96.80
12922;DHT22;6528;48.086;16.282;2023-04-03T00:47:19;21.50;96.40
12922;DHT22;6528;48.086;16.282;2023-04-03T00:49:46;21.50;96.60
12922;DHT22;6528;48.086;16.282;2023-04-03T00:52:16;21.60;96.30
12922;DHT22;6528;48.086;16.282;2023-04-03T00:54:46;21.60;96.10
12922;DHT22;6528;48.086;16.282;2023-04-03T00:57:15;21.60;96.10
12922;DHT22;6528;48.086;16.282;2023-04-03T00:59:44;21.50;96.70
12922;DHT22;6528;48.086;16.282;2023-04-03T01:02:12;21.50;96.20
12922;DHT22;6528;48.086;16.282;2023-04-03T01:04:41;21.50;96.10
12922;DHT22;6528;48.086;16.282;2023-04-03T01:07:10;21.60;95.90
12922;DHT22;6528;48.086;16.282;2023-04-03T01:09:37;21.50;96.10
12922;DHT22;6528;48.086;16.282;2023-04-03T01:14:52;21.60;96.40
12922;DHT22;6528;48.086;16.282;2023-04-03T01:22:55;21.60;95.30
12922;DHT22;6528;48.086;16.282;2023-04-03T01:25:24;21.50;95.50
12922;DHT22;6528;48.086;16.282;2023-04-03T01:27:51;21.50;95.20
12922;DHT22;6528;48.086;16.282;2023-04-03T01:30:19;21.50;96.00
12922;DHT22;6528;48.086;16.282;2023-04-03T01:32:46;21.50;94.70
12922;DHT22;6528;48.086;16.282;2023-04-03T01:35:13;21.60;94.90
12922;DHT22;6528;48.086;16.282;2023-04-03T01:37:40;21.50;95.20
12922;DHT22;6528;48.086;16.282;2023-04-03T01:40:07;21.50;94.80
12922;DHT22;6528;48.086;16.282;2023-04-03T01:42:34;21.60;94.90
12922;DHT22;6528;48.086;16.282;2023-04-03T01:45:01;21.50;95.20
12922;DHT22;6528;48.086;16.282;2023-04-03T01:47:28;21.60;95.60
12922;DHT22;6528;48.086;16.282;2023-04-03T01:49:55;21.50;95.80
12922;DHT22;6528;48.086;16.282;2023-04-03T01:52:21;21.50;94.70
12922;DHT22;6528;48.086;16.282;2023-04-03T01:54:48;21.50;94.70
12922;DHT22;6528;48.086;16.282;2023-04-03T01:57:15;21.50;95.00
12922;DHT22;6528;48.086;16.282;2023-04-03T01:59:42;21.50;94.90
12922;DHT22;6528;48.086;16.282;2023-04-03T02:02:09;21.50;94.30
12922;DHT22;6528;48.086;16.282;2023-04-03T02:04:36;21.50;94.40
12922;DHT22;6528;48.086;16.282;2023-04-03T02:07:03;21.50;94.30
12922;DHT22;6528;48.086;16.282;2023-04-03T02:09:30;21.50;94.90
12922;DHT22;6528;48.086;16.282;2023-04-03T02:11:56;21.50;94.80
12922;DHT22;6528;48.086;16.282;2023-04-03T02:14:23;21.50;94.10
12922;DHT22;6528;48.086;16.282;2023-04-03T02:16:50;21.50;94.10
12922;DHT22;6528;48.086;16.282;2023-04-03T02:19:17;21.50;94.00
12922;DHT22;6528;48.086;16.282;2023-04-03T02:21:44;21.50;94.10
12922;DHT22;6528;48.086;16.282;2023-04-03T02:24:11;21.50;93.80
12922;DHT22;6528;48.086;16.282;2023-04-03T02:26:37;21.50;93.60
12922;DHT22;6528;48.086;16.282;2023-04-03T02:29:04;21.50;93.70
12922;DHT22;6528;48.086;16.282;2023-04-03T02:31:31;21.50;93.50
12922;DHT22;6528;48.086;16.282;2023-04-03T02:33:58;21.50;93.80
12922;DHT22;6528;48.086;16.282;2023-04-03T02:36:25;21.50;94.00
12922;DHT22;6528;48.086;16.282;2023-04-03T02:38:51;21.50;93.30
12922;DHT22;6528;48.086;16.282;2023-04-03T02:41:18;21.50;93.70
12922;DHT22;6528;48.086;16.282;2023-04-03T02:43:45;21.50;93.30
12922;DHT22;6528;48.086;16.282;2023-04-03T02:46:12;21.50;93.80
12922;DHT22;6528;48.086;16.282;2023-04-03T02:48:41;21.50;93.80
12922;DHT22;6528;48.086;16.282;2023-04-03T02:51:08;21.50;93.70
12922;DHT22;6528;48.086;16.282;2023-04-03T02:53:35;21.50;92.80
12922;DHT22;6528;48.086;16.282;2023-04-03T02:56:01;21.50;93.20
12922;DHT22;6528;48.086;16.282;2023-04-03T02:58:28;21.50;93.10
12922;DHT22;6528;48.086;16.282;2023-04-03T03:00:55;21.50;93.10
12922;DHT22;6528;48.086;16.282;2023-04-03T03:03:22;21.50;93.10
12922;DHT22;6528;48.086;16.282;2023-04-03T03:05:49;21.50;93.50
12922;DHT22;6528;48.086;16.282;2023-04-03T03:08:16;21.50;93.10
12922;DHT22;6528;48.086;16.282;2023-04-03T03:10:46;21.50;92.70
12922;DHT22;6528;48.086;16.282;2023-04-03T03:13:13;21.50;92.60
12922;DHT22;6528;48.086;16.282;2023-04-03T03:15:40;21.50;92.50
12922;DHT22;6528;48.086;16.282;2023-04-03T03:18:06;21.50;92.50
12922;DHT22;6528;48.086;16.282;2023-04-03T03:20:33;21.50;92.10
12922;DHT22;6528;48.086;16.282;2023-04-03T03:23:00;21.40;92.30
12922;DHT22;6528;48.086;16.282;2023-04-03T03:25:27;21.50;99.90
12922;DHT22;6528;48.086;16.282;2023-04-03T03:27:54;21.50;92.10
12922;DHT22;6528;48.086;16.282;2023-04-03T03:30:21;21.50;92.80
12922;DHT22;6528;48.086;16.282;2023-04-03T03:32:48;21.50;92.40
12922;DHT22;6528;48.086;16.282;2023-04-03T03:35:15;21.50;92.20
12922;DHT22;6528;48.086;16.282;2023-04-03T03:37:42;21.50;92.60
12922;DHT22;6528;48.086;16.282;2023-04-03T03:40:09;21.50;92.10
12922;DHT22;6528;48.086;16.282;2023-04-03T03:42:37;21.40;91.70
12922;DHT22;6528;48.086;16.282;2023-04-03T03:45:04;21.40;91.70
12922;DHT22;6528;48.086;16.282;2023-04-03T03:47:32;21.40;91.50
12922;DHT22;6528;48.086;16.282;2023-04-03T03:49:58;21.40;91.60
12922;DHT22;6528;48.086;16.282;2023-04-03T03:52:25;21.40;91.40
12922;DHT22;6528;48.086;16.282;2023-04-03T03:54:52;21.40;99.90
12922;DHT22;6528;48.086;16.282;2023-04-03T03:57:19;21.50;91.10
12922;DHT22;6528;48.086;16.282;2023-04-03T03:59:47;21.40;91.40
12922;DHT22;6528;48.086;16.282;2023-04-03T04:02:15;21.40;91.20
12922;DHT22;6528;48.086;16.282;2023-04-03T04:04:42;21.40;91.10
12922;DHT22;6528;48.086;16.282;2023-04-03T04:07:09;21.40;91.00
12922;DHT22;6528;48.086;16.282;2023-04-03T04:09:36;21.40;99.90
12922;DHT22;6528;48.086;16.282;2023-04-03T04:12:03;21.40;90.70
12922;DHT22;6528;48.086;16.282;2023-04-03T04:14:30;21.40;99.90
12922;DHT22;6528;48.086;16.282;2023-04-03T04:16:57;21.40;90.80
12922;DHT22;6528;48.086;16.282;2023-04-03T04:19:23;21.50;90.50
12922;DHT22;6528;48.086;16.282;2023-04-03T04:21:50;21.40;90.60
12922;DHT22;6528;48.086;16.282;2023-04-03T04:24:17;21.40;90.60
12922;DHT22;6528;48.086;16.282;2023-04-03T04:26:44;21.40;90.90
12922;DHT22;6528;48.086;16.282;2023-04-03T04:29:11;21.40;90.40
12922;DHT22;6528;48.086;16.282;2023-04-03T04:31:37;21.40;90.40
12922;DHT22;6528;48.086;16.282;2023-04-03T04:34:04;21.40;90.30
12922;DHT22;6528;48.086;16.282;2023-04-03T04:36:31;21.40;90.30
12922;DHT22;6528;48.086;16.282;2023-04-03T04:38:58;21.40;90.40
12922;DHT22;6528;48.086;16.282;2023-04-03T04:41:25;21.40;90.70
12922;DHT22;6528;48.086;16.282;2023-04-03T04:43:52;21.40;90.00
12922;DHT22;6528;48.086;16.282;2023-04-03T04:46:19;21.40;90.30
12922;DHT22;6528;48.086;16.282;2023-04-03T04:48:46;21.40;90.10
12922;DHT22;6528;48.086;16.282;2023-04-03T04:51:13;21.40;89.70
12922;DHT22;6528;48.086;16.282;2023-04-03T04:53:40;21.40;89.00
12922;DHT22;6528;48.086;16.282;2023-04-03T04:56:07;21.40;90.10
12922;DHT22;6528;48.086;16.282;2023-04-03T04:58:34;21.40;89.30
12922;DHT22;6528;48.086;16.282;2023-04-03T05:01:09;21.40;90.10
12922;DHT22;6528;48.086;16.282;2023-04-03T05:03:36;21.40;90.10
12922;DHT22;6528;48.086;16.282;2023-04-03T05:06:03;21.40;89.10
12922;DHT22;6528;48.086;16.282;2023-04-03T05:08:31;21.40;89.20
12922;DHT22;6528;48.086;16.282;2023-04-03T05:10:58;21.40;88.50
12922;DHT22;6528;48.086;16.282;2023-04-03T05:13:25;21.40;88.70
12922;DHT22;6528;48.086;16.282;2023-04-03T05:15:52;21.40;88.10
12922;DHT22;6528;48.086;16.282;2023-04-03T05:18:18;21.40;89.10
12922;DHT22;6528;48.086;16.282;2023-04-03T05:20:48;21.40;87.50
12922;DHT22;6528;48.086;16.282;2023-04-03T05:23:16;21.30;89.00
12922;DHT22;6528;48.086;16.282;2023-04-03T05:25:43;21.40;88.20
12922;DHT22;6528;48.086;16.282;2023-04-03T05:28:11;21.40;87.00
12922;DHT22;6528;48.086;16.282;2023-04-03T05:30:38;21.40;87.90
12922;DHT22;6528;48.086;16.282;2023-04-03T05:33:05;21.40;86.90
12922;DHT22;6528;48.086;16.282;2023-04-03T05:35:32;21.40;86.80
12922;DHT22;6528;48.086;16.282;2023-04-03T05:37:59;21.40;86.80
12922;DHT22;6528;48.086;16.282;2023-04-03T05:40:26;21.40;86.60
12922;DHT22;6528;48.086;16.282;2023-04-03T05:42:53;21.40;86.70
12922;DHT22;6528;48.086;16.282;2023-04-03T05:45:20;21.10;86.30
12922;DHT22;6528;48.086;16.282;2023-04-03T05:47:47;20.60;72.20
12922;DHT22;6528;48.086;16.282;2023-04-03T05:50:14;20.20;52.70
12922;DHT22;6528;48.086;16.282;2023-04-03T05:52:44;19.70;30.20
12922;DHT22;6528;48.086;16.282;2023-04-03T05:55:11;19.30;9.50
12922;DHT22;6528;48.086;16.282;2023-04-03T05:57:38;18.80;1.00
12922;DHT22;6528;48.086;16.282;2023-04-03T06:00:08;18.50;1.00
12922;DHT22;6528;48.086;16.282;2023-04-03T06:02:36;18.20;1.00
12922;DHT22;6528;48.086;16.282;2023-04-03T06:05:03;17.90;1.00
12922;DHT22;6528;48.086;16.282;2023-04-03T06:07:30;17.70;1.00
12922;DHT22;6528;48.086;16.282;2023-04-03T06:09:57;17.50;1.00
12922;DHT22;6528;48.086;16.282;2023-04-03T06:12:24;17.20;1.00
12922;DHT22;6528;48.086;16.282;2023-04-03T06:14:51;17.00;1.00
12922;DHT22;6528;48.086;16.282;2023-04-03T06:17:18;16.80;1.00
12922;DHT22;6528;48.086;16.282;2023-04-03T06:19:45;16.70;1.00
12922;DHT22;6528;48.086;16.282;2023-04-03T06:22:13;16.60;1.00
12922;DHT22;6528;48.086;16.282;2023-04-03T06:24:40;16.50;1.00
12922;DHT22;6528;48.086;16.282;2023-04-03T06:27:07;16.40;1.00
12922;DHT22;6528;48.086;16.282;2023-04-03T06:29:34;16.30;1.00
12922;DHT22;6528;48.086;16.282;2023-04-03T06:32:00;16.20;1.00
12922;DHT22;6528;48.086;16.282;2023-04-03T06:34:27;16.10;1.00
12922;DHT22;6528;48.086;16.282;2023-04-03T06:36:54;16.10;1.00
12922;DHT22;6528;48.086;16.282;2023-04-03T06:39:21;16.10;1.00
12922;DHT22;6528;48.086;16.282;2023-04-03T06:41:51;15.90;1.00
12922;DHT22;6528;48.086;16.282;2023-04-03T06:44:18;15.90;1.00
12922;DHT22;6528;48.086;16.282;2023-04-03T06:46:45;15.80;1.00
12922;DHT22;6528;48.086;16.282;2023-04-03T06:49:13;15.70;1.00
12922;DHT22;6528;48.086;16.282;2023-04-03T06:51:40;15.70;1.00
12922;DHT22;6528;48.086;16.282;2023-04-03T06:54:06;15.60;1.00
12922;DHT22;6528;48.086;16.282;2023-04-03T06:56:35;15.50;1.00
12922;DHT22;6528;48.086;16.282;2023-04-03T06:59:03;15.50;1.00
12922;DHT22;6528;48.086;16.282;2023-04-03T07:01:30;15.40;1.00
12922;DHT22;6528;48.086;16.282;2023-04-03T07:03:57;15.30;1.00
12922;DHT22;6528;48.086;16.282;2023-04-03T07:06:24;15.20;1.00
12922;DHT22;6528;48.086;16.282;2023-04-03T07:08:53;15.20;1.00
12922;DHT22;6528;48.086;16.282;2023-04-03T07:11:20;15.10;1.00
12922;DHT22;6528;48.086;16.282;2023-04-03T07:13:47;15.10;1.00
12922;DHT22;6528;48.086;16.282;2023-04-03T07:16:14;15.00;1.00
12922;DHT22;6528;48.086;16.282;2023-04-03T07:18:41;15.00;1.00
12922;DHT22;6528;48.086;16.282;2023-04-03T07:21:08;14.90;1.00
12922;DHT22;6528;48.086;16.282;2023-04-03T07:23:35;14.90;1.00
12922;DHT22;6528;48.086;16.282;2023-04-03T07:26:02;14.90;1.00
12922;DHT22;6528;48.086;16.282;2023-04-03T07:28:29;14.90;1.00
12922;DHT22;6528;48.086;16.282;2023-04-03T07:31:05;14.90;1.00
12922;DHT22;6528;48.086;16.282;2023-04-03T07:33:35;14.80;1.00
12922;DHT22;6528;48.086;16.282;2023-04-03T07:36:02;14.80;1.00
12922;DHT22;6528;48.086;16.282;2023-04-03T07:38:29;14.80;1.00
12922;DHT22;6528;48.086;16.282;2023-04-03T07:40:56;14.70;1.00
12922;DHT22;6528;48.086;16.282;2023-04-03T07:43:23;14.70;1.00
12922;DHT22;6528;48.086;16.282;2023-04-03T07:45:51;14.60;1.00
12922;DHT22;6528;48.086;16.282;2023-04-03T07:48:21;14.70;1.00
12922;DHT22;6528;48.086;16.282;2023-04-03T07:50:47;14.70;1.00
12922;DHT22;6528;48.086;16.282;2023-04-03T07:53:15;14.70;1.00
12922;DHT22;6528;48.086;16.282;2023-04-03T07:55:42;14.70;1.00
12922;DHT22;6528;48.086;16.282;2023-04-03T07:58:14;14.70;1.00
12922;DHT22;6528;48.086;16.282;2023-04-03T08:00:41;14.70;1.00
12922;DHT22;6528;48.086;16.282;2023-04-03T08:03:10;14.70;1.00
12922;DHT22;6528;48.086;16.282;2023-04-03T08:05:41;14.70;1.00
12922;DHT22;6528;48.086;16.282;2023-04-03T08:08:09;14.70;1.00
12922;DHT22;6528;48.086;16.282;2023-04-03T08:10:36;14.70;1.00
12922;DHT22;6528;48.086;16.282;2023-04-03T08:13:04;14.70;1.00
12922;DHT22;6528;48.086;16.282;2023-04-03T08:15:31;14.70;1.00
12922;DHT22;6528;48.086;16.282;2023-04-03T08:17:59;14.70;1.00
12922;DHT22;6528;48.086;16.282;2023-04-03T08:20:27;14.70;1.00
12922;DHT22;6528;48.086;16.282;2023-04-03T08:22:54;14.70;1.00
12922;DHT22;6528;48.086;16.282;2023-04-03T08:25:21;14.70;1.00
12922;DHT22;6528;48.086;16.282;2023-04-03T08:27:48;14.70;1.00
12922;DHT22;6528;48.086;16.282;2023-04-03T08:30:15;14.70;1.00
12922;DHT22;6528;48.086;16.282;2023-04-03T08:32:42;14.70;1.00
12922;DHT22;6528;48.086;16.282;2023-04-03T08:35:10;14.70;1.00
12922;DHT22;6528;48.086;16.282;2023-04-03T08:37:38;14.70;1.00
12922;DHT22;6528;48.086;16.282;2023-04-03T08:40:07;14.80;1.00
12922;DHT22;6528;48.086;16.282;2023-04-03T08:47:55;14.90;1.00
12922;DHT22;6528;48.086;16.282;2023-04-03T08:50:38;14.90;1.00
12922;DHT22;6528;48.086;16.282;2023-04-03T08:53:06;14.90;1.00
12922;DHT22;6528;48.086;16.282;2023-04-03T08:55:43;14.90;1.00
12922;DHT22;6528;48.086;16.282;2023-04-03T08:58:21;14.90;1.00
12922;DHT22;6528;48.086;16.282;2023-04-03T09:00:56;14.80;1.00
12922;DHT22;6528;48.086;16.282;2023-04-03T09:03:24;14.90;1.00
12922;DHT22;6528;48.086;16.282;2023-04-03T09:06:07;14.90;1.00
12922;DHT22;6528;48.086;16.282;2023-04-03T09:11:42;14.90;1.00
12922;DHT22;6528;48.086;16.282;2023-04-03T09:14:33;14.90;1.00
12922;DHT22;6528;48.086;16.282;2023-04-03T09:17:28;15.00;1.00
12922;DHT22;6528;48.086;16.282;2023-04-03T09:22:33;15.00;1.00
12922;DHT22;6528;48.086;16.282;2023-04-03T09:25:20;15.00;1.00
12922;DHT22;6528;48.086;16.282;2023-04-03T09:27:48;14.90;1.00
12922;DHT22;6528;48.086;16.282;2023-04-03T09:30:20;14.90;1.00
12922;DHT22;6528;48.086;16.282;2023-04-03T09:32:50;14.90;1.00
12922;DHT22;6528;48.086;16.282;2023-04-03T09:35:26;14.90;1.00
12922;DHT22;6528;48.086;16.282;2023-04-03T09:40:42;14.90;1.00
12922;DHT22;6528;48.086;16.282;2023-04-03T09:43:25;15.00;1.00
12922;DHT22;6528;48.086;16.282;2023-04-03T09:45:53;15.00;1.00
12922;DHT22;6528;48.086;16.282;2023-04-03T09:48:23;15.00;1.00
12922;DHT22;6528;48.086;16.282;2023-04-03T09:55:53;14.80;1.00
12922;DHT22;6528;48.086;16.282;2023-04-03T09:58:28;14.80;1.00
12922;DHT22;6528;48.086;16.282;2023-04-03T10:01:26;14.80;1.00
12922;DHT22;6528;48.086;16.282;2023-04-03T10:04:12;14.70;1.00
12922;DHT22;6528;48.086;16.282;2023-04-03T10:06:50;14.70;1.00
12922;DHT22;6528;48.086;16.282;2023-04-03T10:09:22;14.70;1.00
12922;DHT22;6528;48.086;16.282;2023-04-03T10:12:10;14.70;1.00
12922;DHT22;6528;48.086;16.282;2023-04-03T10:14:40;14.70;1.00
12922;DHT22;6528;48.086;16.282;2023-04-03T10:25:47;14.70;1.00
12922;DHT22;6528;48.086;16.282;2023-04-03T10:33:39;14.70;1.00
12922;DHT22;6528;48.086;16.282;2023-04-03T10:53:35;15.00;1.00
12922;DHT22;6528;48.086;16.282;2023-04-03T10:56:25;15.00;1.00
12922;DHT22;6528;48.086;16.282;2023-04-03T11:01:37;15.00;1.00
12922;DHT22;6528;48.086;16.282;2023-04-03T11:04:06;14.90;1.00
12922;DHT22;6528;48.086;16.282;2023-04-03T11:06:49;15.00;1.00
12922;DHT22;6528;48.086;16.282;2023-04-03T11:09:26;15.00;1.00
12922;DHT22;6528;48.086;16.282;2023-04-03T11:11:58;15.10;1.00
12922;DHT22;6528;48.086;16.282;2023-04-03T11:14:35;15.10;1.00
12922;DHT22;6528;48.086;16.282;2023-04-03T11:20:02;15.30;1.00
12922;DHT22;6528;48.086;16.282;2023-04-03T11:23:12;15.40;1.00
12922;DHT22;6528;48.086;16.282;2023-04-03T11:25:41;15.50;1.00
12922;DHT22;6528;48.086;16.282;2023-04-03T11:28:14;15.50;1.00
12922;DHT22;6528;48.086;16.282;2023-04-03T11:31:08;15.50;1.00
12922;DHT22;6528;48.086;16.282;2023-04-03T11:36:42;15.60;1.00
12922;DHT22;6528;48.086;16.282;2023-04-03T11:39:31;15.50;1.00
12922;DHT22;6528;48.086;16.282;2023-04-03T11:44:41;15.50;1.00
12922;DHT22;6528;48.086;16.282;2023-04-03T11:47:11;15.50;1.00
12922;DHT22;6528;48.086;16.282;2023-04-03T11:50:03;15.50;1.00
12922;DHT22;6528;48.086;16.282;2023-04-03T12:08:48;16.10;1.00
12922;DHT22;6528;48.086;16.282;2023-04-03T12:11:30;16.20;1.00
12922;DHT22;6528;48.086;16.282;2023-04-03T12:47:42;17.60;1.00
12922;DHT22;6528;48.086;16.282;2023-04-03T12:50:32;17.60;1.00
12922;DHT22;6528;48.086;16.282;2023-04-03T12:53:06;17.70;1.00
12922;DHT22;6528;48.086;16.282;2023-04-03T12:55:33;17.80;1.00
12922;DHT22;6528;48.086;16.282;2023-04-03T12:58:19;17.90;1.00
12922;DHT22;6528;48.086;16.282;2023-04-03T13:01:09;17.90;1.00
12922;DHT22;6528;48.086;16.282;2023-04-03T13:03:43;17.90;1.00
12922;DHT22;6528;48.086;16.282;2023-04-03T13:06:17;18.00;1.00
12922;DHT22;6528;48.086;16.282;2023-04-03T13:08:56;18.10;1.00
12922;DHT22;6528;48.086;16.282;2023-04-03T13:11:26;18.10;1.00
12922;DHT22;6528;48.086;16.282;2023-04-03T13:14:01;18.20;1.00
12922;DHT22;6528;48.086;16.282;2023-04-03T13:16:29;18.20;1.00
12922;DHT22;6528;48.086;16.282;2023-04-03T13:18:57;18.20;1.00
12922;DHT22;6528;48.086;16.282;2023-04-03T13:21:28;18.30;1.00
12922;DHT22;6528;48.086;16.282;2023-04-03T13:23:58;18.30;1.00
12922;DHT22;6528;48.086;16.282;2023-04-03T13:26:40;18.40;1.00
12922;DHT22;6528;48.086;16.282;2023-04-03T13:29:38;18.40;1.00
12922;DHT22;6528;48.086;16.282;2023-04-03T13:32:06;18.40;1.00
12922;DHT22;6528;48.086;16.282;2023-04-03T13:34:42;18.40;1.00
12922;DHT22;6528;48.086;16.282;2023-04-03T13:37:32;18.50;1.00
12922;DHT22;6528;48.086;16.282;2023-04-03T13:40:20;18.50;1.00
12922;DHT22;6528;48.086;16.282;2023-04-03T13:42:59;18.50;1.00
12922;DHT22;6528;48.086;16.282;2023-04-03T13:45:28;18.60;1.00
12922;DHT22;6528;48.086;16.282;2023-04-03T13:48:15;18.60;1.00
12922;DHT22;6528;48.086;16.282;2023-04-03T13:50:54;18.60;1.00
12922;DHT22;6528;48.086;16.282;2023-04-03T13:53:23;18.60;1.00
12922;DHT22;6528;48.086;16.282;2023-04-03T13:56:00;18.70;1.00
12922;DHT22;6528;48.086;16.282;2023-04-03T13:58:32;18.70;1.00
12922;DHT22;6528;48.086;16.282;2023-04-03T14:01:01;18.70;1.00
12922;DHT22;6528;48.086;16.282;2023-04-03T14:03:39;18.80;1.00
12922;DHT22;6528;48.086;16.282;2023-04-03T14:06:10;18.80;1.00
12922;DHT22;6528;48.086;16.282;2023-04-03T14:08:37;18.80;1.00
12922;DHT22;6528;48.086;16.282;2023-04-03T14:11:29;18.80;1.00
12922;DHT22;6528;48.086;16.282;2023-04-03T14:14:18;18.80;1.00
12922;DHT22;6528;48.086;16.282;2023-04-03T14:16:52;18.80;1.00
12922;DHT22;6528;48.086;16.282;2023-04-03T14:19:23;18.90;1.00
12922;DHT22;6528;48.086;16.282;2023-04-03T14:21:52;18.90;1.00
12922;DHT22;6528;48.086;16.282;2023-04-03T14:24:19;18.90;1.00
12922;DHT22;6528;48.086;16.282;2023-04-03T14:26:48;18.90;1.00
12922;DHT22;6528;48.086;16.282;2023-04-03T14:29:15;19.00;1.00
12922;DHT22;6528;48.086;16.282;2023-04-03T14:31:43;19.00;1.00
12922;DHT22;6528;48.086;16.282;2023-04-03T14:34:12;19.00;1.00
12922;DHT22;6528;48.086;16.282;2023-04-03T14:36:41;19.00;1.00
12922;DHT22;6528;48.086;16.282;2023-04-03T14:39:11;19.00;1.00
12922;DHT22;6528;48.086;16.282;2023-04-03T14:41:43;19.00;1.00
12922;DHT22;6528;48.086;16.282;2023-04-03T14:44:10;19.10;1.00
12922;DHT22;6528;48.086;16.282;2023-04-03T14:46:40;19.10;1.00
12922;DHT22;6528;48.086;16.282;2023-04-03T14:49:26;19.10;1.00
12922;DHT22;6528;48.086;16.282;2023-04-03T14:51:57;19.10;1.00
12922;DHT22;6528;48.086;16.282;2023-04-03T14:54:24;19.10;1.00
12922;DHT22;6528;48.086;16.282;2023-04-03T14:56:57;19.20;1.00
12922;DHT22;6528;48.086;16.282;2023-04-03T14:59:25;19.20;1.00
12922;DHT22;6528;48.086;16.282;2023-04-03T15:01:53;19.20;1.00
12922;DHT22;6528;48.086;16.282;2023-04-03T15:04:20;19.20;1.00
12922;DHT22;6528;48.086;16.282;2023-04-03T15:06:48;19.30;1.00
12922;DHT22;6528;48.086;16.282;2023-04-03T15:09:21;19.20;1.00
12922;DHT22;6528;48.086;16.282;2023-04-03T15:11:50;19.20;1.00
12922;DHT22;6528;48.086;16.282;2023-04-03T15:14:17;19.20;1.00
12922;DHT22;6528;48.086;16.282;2023-04-03T15:17:04;19.20;1.00
12922;DHT22;6528;48.086;16.282;2023-04-03T15:19:37;19.30;1.00
12922;DHT22;6528;48.086;16.282;2023-04-03T15:22:04;19.30;1.00
12922;DHT22;6528;48.086;16.282;2023-04-03T15:24:31;19.30;1.00
12922;DHT22;6528;48.086;16.282;2023-04-03T15:26:59;19.30;1.00
12922;DHT22;6528;48.086;16.282;2023-04-03T15:29:26;19.30;1.00
12922;DHT22;6528;48.086;16.282;2023-04-03T15:31:53;19.30;1.00
12922;DHT22;6528;48.086;16.282;2023-04-03T15:34:20;19.30;1.00
12922;DHT22;6528;48.086;16.282;2023-04-03T15:36:49;19.40;1.00
12922;DHT22;6528;48.086;16.282;2023-04-03T15:39:19;19.40;1.00
12922;DHT22;6528;48.086;16.282;2023-04-03T15:41:47;19.40;1.00
12922;DHT22;6528;48.086;16.282;2023-04-03T15:44:14;19.40;1.00
12922;DHT22;6528;48.086;16.282;2023-04-03T15:46:45;19.40;1.00
12922;DHT22;6528;48.086;16.282;2023-04-03T15:49:12;19.40;1.00
12922;DHT22;6528;48.086;16.282;2023-04-03T15:51:40;19.40;1.00
12922;DHT22;6528;48.086;16.282;2023-04-03T15:54:07;19.40;1.00
12922;DHT22;6528;48.086;16.282;2023-04-03T15:56:34;19.40;1.00
12922;DHT22;6528;48.086;16.282;2023-04-03T15:59:00;19.50;1.00
12922;DHT22;6528;48.086;16.282;2023-04-03T16:01:27;19.50;1.00
12922;DHT22;6528;48.086;16.282;2023-04-03T16:03:54;19.50;1.00
12922;DHT22;6528;48.086;16.282;2023-04-03T16:06:21;19.50;1.00
12922;DHT22;6528;48.086;16.282;2023-04-03T16:08:51;19.50;1.00
12922;DHT22;6528;48.086;16.282;2023-04-03T16:11:17;19.50;1.00
12922;DHT22;6528;48.086;16.282;2023-04-03T16:13:44;19.50;1.00
12922;DHT22;6528;48.086;16.282;2023-04-03T16:16:11;19.50;1.00
12922;DHT22;6528;48.086;16.282;2023-04-03T16:18:38;19.50;1.00
12922;DHT22;6528;48.086;16.282;2023-04-03T16:21:06;19.50;1.00
12922;DHT22;6528;48.086;16.282;2023-04-03T16:23:34;19.50;1.00
12922;DHT22;6528;48.086;16.282;2023-04-03T16:26:01;19.50;1.00
12922;DHT22;6528;48.086;16.282;2023-04-03T16:28:28;19.50;1.00
12922;DHT22;6528;48.086;16.282;2023-04-03T16:30:55;19.60;1.00
12922;DHT22;6528;48.086;16.282;2023-04-03T16:33:21;19.50;1.00
12922;DHT22;6528;48.086;16.282;2023-04-03T16:35:49;19.60;1.00
12922;DHT22;6528;48.086;16.282;2023-04-03T16:38:17;19.60;1.00
12922;DHT22;6528;48.086;16.282;2023-04-03T16:40:45;19.60;1.00
12922;DHT22;6528;48.086;16.282;2023-04-03T16:43:12;19.60;1.00
12922;DHT22;6528;48.086;16.282;2023-04-03T16:45:39;19.60;1.00
12922;DHT22;6528;48.086;16.282;2023-04-03T16:48:06;19.60;1.00
12922;DHT22;6528;48.086;16.282;2023-04-03T16:50:33;19.60;1.00
12922;DHT22;6528;48.086;16.282;2023-04-03T16:53:00;19.60;1.00
12922;DHT22;6528;48.086;16.282;2023-04-03T16:55:29;19.60;1.00
12922;DHT22;6528;48.086;16.282;2023-04-03T16:57:56;19.60;1.00
12922;DHT22;6528;48.086;16.282;2023-04-03T17:00:23;19.60;1.00
12922;DHT22;6528;48.086;16.282;2023-04-03T17:02:50;19.60;1.00
12922;DHT22;6528;48.086;16.282;2023-04-03T17:05:16;19.60;1.00
12922;DHT22;6528;48.086;16.282;2023-04-03T17:07:43;19.70;1.00
12922;DHT22;6528;48.086;16.282;2023-04-03T17:10:11;19.60;1.00
12922;DHT22;6528;48.086;16.282;2023-04-03T17:12:38;19.70;1.00
12922;DHT22;6528;48.086;16.282;2023-04-03T17:15:06;19.70;1.00
12922;DHT22;6528;48.086;16.282;2023-04-03T17:17:33;19.70;1.00
12922;DHT22;6528;48.086;16.282;2023-04-03T17:20:00;19.70;1.00
12922;DHT22;6528;48.086;16.282;2023-04-03T17:22:28;19.70;1.00
12922;DHT22;6528;48.086;16.282;2023-04-03T17:24:55;19.70;1.00
12922;DHT22;6528;48.086;16.282;2023-04-03T17:27:23;19.70;1.00
12922;DHT22;6528;48.086;16.282;2023-04-03T17:29:50;19.70;1.00
12922;DHT22;6528;48.086;16.282;2023-04-03T17:32:16;19.70;1.00
12922;DHT22;6528;48.086;16.282;2023-04-03T17:34:45;19.70;1.00
12922;DHT22;6528;48.086;16.282;2023-04-03T17:37:12;19.70;1.00
12922;DHT22;6528;48.086;16.282;2023-04-03T17:39:39;19.70;1.00
12922;DHT22;6528;48.086;16.282;2023-04-03T17:42:06;19.80;1.00
12922;DHT22;6528;48.086;16.282;2023-04-03T17:44:33;19.70;1.00
12922;DHT22;6528;48.086;16.282;2023-04-03T17:47:00;19.80;1.00
12922;DHT22;6528;48.086;16.282;2023-04-03T17:49:28;19.70;1.00
12922;DHT22;6528;48.086;16.282;2023-04-03T17:51:55;19.80;1.00
12922;DHT22;6528;48.086;16.282;2023-04-03T17:54:22;19.80;1.00
12922;DHT22;6528;48.086;16.282;2023-04-03T17:56:48;19.80;1.00